sensor_id;sensor_type;location;lat;lon;timestamp;P1;durP1;ratioP1;P2;durP2;ratioP2
7173;SDS011;3628;48.654;8.932;2024-03-02T00:02:12;3.83;;;2.93;;
7173;SDS011;3628;48.654;8.932;2024-03-02T00:04:39;3.00;;;2.63;;
7173;SDS011;3628;48.654;8.932;2024-03-02T00:07:05;4.87;;;2.90;;
7173;SDS011;3628;48.654;8.932;2024-03-02T00:09:31;4.37;;;3.20;;
7173;SDS011;3628;48.654;8.932;2024-03-02T00:12:00;3.57;;;2.97;;
7173;SDS011;3628;48.654;8.932;2024-03-02T00:14:28;4.43;;;3.20;;
7173;SDS011;3628;48.654;8.932;2024-03-02T00:16:55;3.90;;;3.10;;
7173;SDS011;3628;48.654;8.932;2024-03-02T00:19:21;7.77;;;4.63;;
7173;SDS011;3628;48.654;8.932;2024-03-02T00:21:46;6.13;;;4.07;;
7173;SDS011;3628;48.654;8.932;2024-03-02T00:24:27;4.93;;;3.77;;
7173;SDS011;3628;48.654;8.932;2024-03-02T00:26:59;5.47;;;4.23;;
7173;SDS011;3628;48.654;8.932;2024-03-02T00:29:26;5.30;;;4.37;;
7173;SDS011;3628;48.654;8.932;2024-03-02T00:31:54;5.67;;;3.97;;
7173;SDS011;3628;48.654;8.932;2024-03-02T00:34:20;4.37;;;3.50;;
7173;SDS011;3628;48.654;8.932;2024-03-02T00:36:47;5.53;;;4.20;;
7173;SDS011;3628;48.654;8.932;2024-03-02T00:39:14;4.47;;;3.40;;
7173;SDS011;3628;48.654;8.932;2024-03-02T00:41:42;5.73;;;4.07;;
7173;SDS011;3628;48.654;8.932;2024-03-02T00:44:08;6.00;;;3.83;;
7173;SDS011;3628;48.654;8.932;2024-03-02T00:46:37;5.77;;;4.40;;
7173;SDS011;3628;48.654;8.932;2024-03-02T00:49:25;7.00;;;4.53;;
7173;SDS011;3628;48.654;8.932;2024-03-02T00:51:51;7.80;;;5.10;;
7173;SDS011;3628;48.654;8.932;2024-03-02T00:54:22;6.53;;;5.00;;
7173;SDS011;3628;48.654;8.932;2024-03-02T00:56:50;7.07;;;5.27;;
7173;SDS011;3628;48.654;8.932;2024-03-02T00:59:20;9.07;;;5.80;;
7173;SDS011;3628;48.654;8.932;2024-03-02T01:01:48;8.73;;;6.17;;
7173;SDS011;3628;48.654;8.932;2024-03-02T01:04:14;8.50;;;5.53;;
7173;SDS011;3628;48.654;8.932;2024-03-02T01:06:40;7.53;;;5.50;;
7173;SDS011;3628;48.654;8.932;2024-03-02T01:09:07;7.97;;;5.80;;
7173;SDS011;3628;48.654;8.932;2024-03-02T01:11:32;7.47;;;5.70;;
7173;SDS011;3628;48.654;8.932;2024-03-02T01:13:58;7.43;;;6.03;;
7173;SDS011;3628;48.654;8.932;2024-03-02T01:16:24;7.83;;;5.60;;
7173;SDS011;3628;48.654;8.932;2024-03-02T01:18:49;6.33;;;5.37;;
7173;SDS011;3628;48.654;8.932;2024-03-02T01:21:15;7.17;;;5.77;;
7173;SDS011;3628;48.654;8.932;2024-03-02T01:23:41;7.17;;;5.60;;
7173;SDS011;3628;48.654;8.932;2024-03-02T01:26:06;7.80;;;5.67;;
7173;SDS011;3628;48.654;8.932;2024-03-02T01:28:32;9.40;;;6.30;;
7173;SDS011;3628;48.654;8.932;2024-03-02T01:30:57;6.70;;;5.30;;
7173;SDS011;3628;48.654;8.932;2024-03-02T01:33:23;8.63;;;5.83;;
7173;SDS011;3628;48.654;8.932;2024-03-02T01:35:49;8.07;;;6.13;;
7173;SDS011;3628;48.654;8.932;2024-03-02T01:38:15;6.67;;;5.37;;
7173;SDS011;3628;48.654;8.932;2024-03-02T01:40:41;8.87;;;6.27;;
7173;SDS011;3628;48.654;8.932;2024-03-02T01:43:09;8.03;;;5.70;;
7173;SDS011;3628;48.654;8.932;2024-03-02T01:45:35;8.63;;;6.10;;
7173;SDS011;3628;48.654;8.932;2024-03-02T01:48:02;7.30;;;5.67;;
7173;SDS011;3628;48.654;8.932;2024-03-02T01:50:32;7.63;;;5.70;;
7173;SDS011;3628;48.654;8.932;2024-03-02T01:52:58;8.20;;;5.70;;
7173;SDS011;3628;48.654;8.932;2024-03-02T01:55:24;8.07;;;5.97;;
7173;SDS011;3628;48.654;8.932;2024-03-02T01:57:50;8.70;;;5.93;;
7173;SDS011;3628;48.654;8.932;2024-03-02T02:00:18;7.77;;;5.63;;
7173;SDS011;3628;48.654;8.932;2024-03-02T02:02:44;7.40;;;5.63;;
7173;SDS011;3628;48.654;8.932;2024-03-02T02:05:11;7.03;;;5.23;;
7173;SDS011;3628;48.654;8.932;2024-03-02T02:07:37;8.27;;;5.70;;
7173;SDS011;3628;48.654;8.932;2024-03-02T02:10:03;7.30;;;5.87;;
7173;SDS011;3628;48.654;8.932;2024-03-02T02:12:28;9.07;;;6.10;;
7173;SDS011;3628;48.654;8.932;2024-03-02T02:14:54;8.17;;;6.03;;
7173;SDS011;3628;48.654;8.932;2024-03-02T02:17:20;6.60;;;5.33;;
7173;SDS011;3628;48.654;8.932;2024-03-02T02:19:45;7.53;;;5.40;;
7173;SDS011;3628;48.654;8.932;2024-03-02T02:22:11;8.40;;;5.73;;
7173;SDS011;3628;48.654;8.932;2024-03-02T02:24:40;7.70;;;5.80;;
7173;SDS011;3628;48.654;8.932;2024-03-02T02:27:09;8.87;;;6.23;;
7173;SDS011;3628;48.654;8.932;2024-03-02T02:29:35;8.60;;;6.10;;
7173;SDS011;3628;48.654;8.932;2024-03-02T02:32:01;8.10;;;6.13;;
7173;SDS011;3628;48.654;8.932;2024-03-02T02:34:27;7.10;;;5.13;;
7173;SDS011;3628;48.654;8.932;2024-03-02T02:36:53;9.70;;;5.57;;
7173;SDS011;3628;48.654;8.932;2024-03-02T02:39:19;7.70;;;5.53;;
7173;SDS011;3628;48.654;8.932;2024-03-02T02:41:47;8.17;;;5.80;;
7173;SDS011;3628;48.654;8.932;2024-03-02T02:44:13;7.27;;;5.30;;
7173;SDS011;3628;48.654;8.932;2024-03-02T02:46:39;8.73;;;5.57;;
7173;SDS011;3628;48.654;8.932;2024-03-02T02:49:05;9.27;;;5.50;;
7173;SDS011;3628;48.654;8.932;2024-03-02T02:51:31;7.17;;;5.60;;
7173;SDS011;3628;48.654;8.932;2024-03-02T02:53:56;6.53;;;4.90;;
7173;SDS011;3628;48.654;8.932;2024-03-02T02:56:22;7.77;;;5.73;;
7173;SDS011;3628;48.654;8.932;2024-03-02T02:58:48;7.37;;;5.87;;
7173;SDS011;3628;48.654;8.932;2024-03-02T03:01:15;8.10;;;5.90;;
7173;SDS011;3628;48.654;8.932;2024-03-02T03:03:43;10.07;;;5.80;;
7173;SDS011;3628;48.654;8.932;2024-03-02T03:06:11;7.67;;;5.77;;
7173;SDS011;3628;48.654;8.932;2024-03-02T03:08:37;7.93;;;5.40;;
7173;SDS011;3628;48.654;8.932;2024-03-02T03:11:03;9.63;;;6.43;;
7173;SDS011;3628;48.654;8.932;2024-03-02T03:13:30;9.40;;;5.70;;
7173;SDS011;3628;48.654;8.932;2024-03-02T03:15:59;7.57;;;6.10;;
7173;SDS011;3628;48.654;8.932;2024-03-02T03:18:25;8.67;;;5.87;;
7173;SDS011;3628;48.654;8.932;2024-03-02T03:20:50;8.47;;;5.53;;
7173;SDS011;3628;48.654;8.932;2024-03-02T03:23:16;7.20;;;5.23;;
7173;SDS011;3628;48.654;8.932;2024-03-02T03:25:42;7.60;;;5.67;;
7173;SDS011;3628;48.654;8.932;2024-03-02T03:28:08;8.07;;;5.43;;
7173;SDS011;3628;48.654;8.932;2024-03-02T03:30:37;8.10;;;5.73;;
7173;SDS011;3628;48.654;8.932;2024-03-02T03:33:03;8.33;;;6.20;;
7173;SDS011;3628;48.654;8.932;2024-03-02T03:35:31;8.07;;;5.93;;
7173;SDS011;3628;48.654;8.932;2024-03-02T03:37:57;8.20;;;5.53;;
7173;SDS011;3628;48.654;8.932;2024-03-02T03:40:22;9.00;;;5.60;;
7173;SDS011;3628;48.654;8.932;2024-03-02T03:42:48;8.23;;;5.63;;
7173;SDS011;3628;48.654;8.932;2024-03-02T03:45:15;6.93;;;5.43;;
7173;SDS011;3628;48.654;8.932;2024-03-02T03:47:41;7.00;;;5.23;;
7173;SDS011;3628;48.654;8.932;2024-03-02T03:50:06;9.60;;;6.47;;
7173;SDS011;3628;48.654;8.932;2024-03-02T03:52:32;7.47;;;5.00;;
7173;SDS011;3628;48.654;8.932;2024-03-02T03:54:58;8.33;;;5.53;;
7173;SDS011;3628;48.654;8.932;2024-03-02T03:57:24;8.63;;;5.93;;
7173;SDS011;3628;48.654;8.932;2024-03-02T03:59:49;6.40;;;4.80;;
7173;SDS011;3628;48.654;8.932;2024-03-02T04:02:15;7.30;;;5.47;;
7173;SDS011;3628;48.654;8.932;2024-03-02T04:04:41;7.83;;;5.43;;
7173;SDS011;3628;48.654;8.932;2024-03-02T04:07:07;8.40;;;5.80;;
7173;SDS011;3628;48.654;8.932;2024-03-02T04:09:32;9.23;;;6.67;;
7173;SDS011;3628;48.654;8.932;2024-03-02T04:11:58;9.40;;;6.33;;
7173;SDS011;3628;48.654;8.932;2024-03-02T04:14:23;9.73;;;7.27;;
7173;SDS011;3628;48.654;8.932;2024-03-02T04:16:49;8.50;;;6.30;;
7173;SDS011;3628;48.654;8.932;2024-03-02T04:19:14;9.43;;;6.40;;
7173;SDS011;3628;48.654;8.932;2024-03-02T04:21:40;9.77;;;6.60;;
7173;SDS011;3628;48.654;8.932;2024-03-02T04:24:05;9.80;;;6.73;;
7173;SDS011;3628;48.654;8.932;2024-03-02T04:26:31;9.37;;;6.43;;
7173;SDS011;3628;48.654;8.932;2024-03-02T04:28:56;8.50;;;6.40;;
7173;SDS011;3628;48.654;8.932;2024-03-02T04:31:22;8.10;;;6.03;;
7173;SDS011;3628;48.654;8.932;2024-03-02T04:33:47;7.60;;;5.73;;
7173;SDS011;3628;48.654;8.932;2024-03-02T04:36:13;6.40;;;4.90;;
7173;SDS011;3628;48.654;8.932;2024-03-02T04:38:39;8.57;;;5.30;;
7173;SDS011;3628;48.654;8.932;2024-03-02T04:41:04;6.00;;;4.77;;
7173;SDS011;3628;48.654;8.932;2024-03-02T04:43:33;8.13;;;5.40;;
7173;SDS011;3628;48.654;8.932;2024-03-02T04:45:59;8.53;;;5.57;;
7173;SDS011;3628;48.654;8.932;2024-03-02T04:48:26;8.80;;;5.50;;
7173;SDS011;3628;48.654;8.932;2024-03-02T04:50:51;7.77;;;5.37;;
7173;SDS011;3628;48.654;8.932;2024-03-02T04:53:17;7.53;;;5.13;;
7173;SDS011;3628;48.654;8.932;2024-03-02T04:55:43;8.13;;;5.37;;
7173;SDS011;3628;48.654;8.932;2024-03-02T04:58:08;7.70;;;4.73;;
7173;SDS011;3628;48.654;8.932;2024-03-02T05:00:34;6.70;;;4.83;;
7173;SDS011;3628;48.654;8.932;2024-03-02T05:03:00;7.27;;;5.10;;
7173;SDS011;3628;48.654;8.932;2024-03-02T05:05:26;9.27;;;5.50;;
7173;SDS011;3628;48.654;8.932;2024-03-02T05:07:52;8.23;;;5.33;;
7173;SDS011;3628;48.654;8.932;2024-03-02T05:10:18;8.17;;;5.40;;
7173;SDS011;3628;48.654;8.932;2024-03-02T05:12:43;9.33;;;5.27;;
7173;SDS011;3628;48.654;8.932;2024-03-02T05:15:15;8.73;;;5.70;;
7173;SDS011;3628;48.654;8.932;2024-03-02T05:17:41;8.93;;;5.40;;
7173;SDS011;3628;48.654;8.932;2024-03-02T05:20:10;9.00;;;5.70;;
7173;SDS011;3628;48.654;8.932;2024-03-02T05:22:36;7.10;;;5.57;;
7173;SDS011;3628;48.654;8.932;2024-03-02T05:25:02;7.43;;;5.73;;
7173;SDS011;3628;48.654;8.932;2024-03-02T05:27:29;9.07;;;6.37;;
7173;SDS011;3628;48.654;8.932;2024-03-02T05:29:55;9.60;;;6.53;;
7173;SDS011;3628;48.654;8.932;2024-03-02T05:32:21;8.63;;;5.60;;
7173;SDS011;3628;48.654;8.932;2024-03-02T05:34:46;8.33;;;5.93;;
7173;SDS011;3628;48.654;8.932;2024-03-02T05:37:12;6.80;;;5.40;;
7173;SDS011;3628;48.654;8.932;2024-03-02T05:39:38;6.93;;;5.20;;
7173;SDS011;3628;48.654;8.932;2024-03-02T05:42:03;7.03;;;5.23;;
7173;SDS011;3628;48.654;8.932;2024-03-02T05:44:29;7.37;;;5.07;;
7173;SDS011;3628;48.654;8.932;2024-03-02T05:46:55;7.23;;;4.93;;
7173;SDS011;3628;48.654;8.932;2024-03-02T05:49:21;8.40;;;5.77;;
7173;SDS011;3628;48.654;8.932;2024-03-02T05:51:46;8.03;;;5.63;;
7173;SDS011;3628;48.654;8.932;2024-03-02T05:54:12;9.23;;;5.67;;
7173;SDS011;3628;48.654;8.932;2024-03-02T05:56:38;7.83;;;5.30;;
7173;SDS011;3628;48.654;8.932;2024-03-02T05:59:03;7.67;;;5.70;;
7173;SDS011;3628;48.654;8.932;2024-03-02T06:01:47;8.23;;;5.43;;
7173;SDS011;3628;48.654;8.932;2024-03-02T06:04:15;9.43;;;5.30;;
7173;SDS011;3628;48.654;8.932;2024-03-02T06:06:41;7.47;;;5.53;;
7173;SDS011;3628;48.654;8.932;2024-03-02T06:09:07;9.13;;;5.53;;
7173;SDS011;3628;48.654;8.932;2024-03-02T06:11:34;7.47;;;5.73;;
7173;SDS011;3628;48.654;8.932;2024-03-02T06:14:01;9.47;;;5.60;;
7173;SDS011;3628;48.654;8.932;2024-03-02T06:16:26;8.37;;;5.70;;
7173;SDS011;3628;48.654;8.932;2024-03-02T06:18:52;7.93;;;5.73;;
7173;SDS011;3628;48.654;8.932;2024-03-02T06:21:19;10.80;;;5.90;;
7173;SDS011;3628;48.654;8.932;2024-03-02T06:23:44;8.60;;;6.00;;
7173;SDS011;3628;48.654;8.932;2024-03-02T06:26:10;8.17;;;5.80;;
7173;SDS011;3628;48.654;8.932;2024-03-02T06:28:36;8.07;;;6.20;;
7173;SDS011;3628;48.654;8.932;2024-03-02T06:31:02;10.73;;;5.67;;
7173;SDS011;3628;48.654;8.932;2024-03-02T06:33:27;9.47;;;6.33;;
7173;SDS011;3628;48.654;8.932;2024-03-02T06:35:53;8.33;;;5.67;;
7173;SDS011;3628;48.654;8.932;2024-03-02T06:38:19;7.47;;;5.53;;
7173;SDS011;3628;48.654;8.932;2024-03-02T06:40:44;7.77;;;5.40;;
7173;SDS011;3628;48.654;8.932;2024-03-02T06:43:10;10.07;;;6.13;;
7173;SDS011;3628;48.654;8.932;2024-03-02T06:45:36;8.80;;;6.50;;
7173;SDS011;3628;48.654;8.932;2024-03-02T06:48:01;8.50;;;6.00;;
7173;SDS011;3628;48.654;8.932;2024-03-02T06:50:27;9.17;;;6.03;;
7173;SDS011;3628;48.654;8.932;2024-03-02T06:52:53;7.83;;;5.60;;
7173;SDS011;3628;48.654;8.932;2024-03-02T06:55:20;7.93;;;5.90;;
7173;SDS011;3628;48.654;8.932;2024-03-02T06:57:46;8.13;;;5.43;;
7173;SDS011;3628;48.654;8.932;2024-03-02T07:00:12;8.30;;;5.97;;
7173;SDS011;3628;48.654;8.932;2024-03-02T07:02:38;7.83;;;5.47;;
7173;SDS011;3628;48.654;8.932;2024-03-02T07:05:06;6.53;;;5.07;;
7173;SDS011;3628;48.654;8.932;2024-03-02T07:07:33;7.73;;;5.57;;
7173;SDS011;3628;48.654;8.932;2024-03-02T07:10:00;6.93;;;5.50;;
7173;SDS011;3628;48.654;8.932;2024-03-02T07:12:26;6.80;;;5.10;;
7173;SDS011;3628;48.654;8.932;2024-03-02T07:14:51;8.97;;;5.50;;
7173;SDS011;3628;48.654;8.932;2024-03-02T07:17:36;8.20;;;5.80;;
7173;SDS011;3628;48.654;8.932;2024-03-02T07:20:02;9.80;;;6.07;;
7173;SDS011;3628;48.654;8.932;2024-03-02T07:22:28;8.40;;;5.53;;
7173;SDS011;3628;48.654;8.932;2024-03-02T07:24:54;9.23;;;6.10;;
7173;SDS011;3628;48.654;8.932;2024-03-02T07:27:20;10.43;;;6.33;;
7173;SDS011;3628;48.654;8.932;2024-03-02T07:29:46;7.97;;;6.13;;
7173;SDS011;3628;48.654;8.932;2024-03-02T07:32:11;11.47;;;7.00;;
7173;SDS011;3628;48.654;8.932;2024-03-02T07:34:37;9.60;;;6.00;;
7173;SDS011;3628;48.654;8.932;2024-03-02T07:37:03;10.17;;;7.07;;
7173;SDS011;3628;48.654;8.932;2024-03-02T07:39:29;8.97;;;6.63;;
7173;SDS011;3628;48.654;8.932;2024-03-02T07:41:55;10.63;;;7.60;;
7173;SDS011;3628;48.654;8.932;2024-03-02T07:44:21;11.77;;;7.77;;
7173;SDS011;3628;48.654;8.932;2024-03-02T07:46:47;8.47;;;6.83;;
7173;SDS011;3628;48.654;8.932;2024-03-02T07:49:16;12.37;;;7.30;;
7173;SDS011;3628;48.654;8.932;2024-03-02T07:51:45;11.57;;;8.40;;
7173;SDS011;3628;48.654;8.932;2024-03-02T07:54:10;9.47;;;7.83;;
7173;SDS011;3628;48.654;8.932;2024-03-02T07:56:36;12.77;;;8.63;;
7173;SDS011;3628;48.654;8.932;2024-03-02T07:59:02;12.57;;;8.20;;
7173;SDS011;3628;48.654;8.932;2024-03-02T08:01:28;10.17;;;7.93;;
7173;SDS011;3628;48.654;8.932;2024-03-02T08:03:55;12.23;;;8.80;;
7173;SDS011;3628;48.654;8.932;2024-03-02T08:06:28;11.13;;;8.13;;
7173;SDS011;3628;48.654;8.932;2024-03-02T08:08:58;10.03;;;7.83;;
7173;SDS011;3628;48.654;8.932;2024-03-02T08:11:24;11.40;;;8.07;;
7173;SDS011;3628;48.654;8.932;2024-03-02T08:13:50;10.23;;;8.00;;
7173;SDS011;3628;48.654;8.932;2024-03-02T08:16:17;11.67;;;8.07;;
7173;SDS011;3628;48.654;8.932;2024-03-02T08:18:45;9.17;;;7.30;;
7173;SDS011;3628;48.654;8.932;2024-03-02T08:21:11;9.67;;;7.10;;
7173;SDS011;3628;48.654;8.932;2024-03-02T08:23:37;11.93;;;7.40;;
7173;SDS011;3628;48.654;8.932;2024-03-02T08:26:05;9.80;;;6.90;;
7173;SDS011;3628;48.654;8.932;2024-03-02T08:28:31;8.70;;;6.30;;
7173;SDS011;3628;48.654;8.932;2024-03-02T08:30:58;9.03;;;6.50;;
7173;SDS011;3628;48.654;8.932;2024-03-02T08:33:23;9.40;;;7.50;;
7173;SDS011;3628;48.654;8.932;2024-03-02T08:35:49;9.33;;;6.63;;
7173;SDS011;3628;48.654;8.932;2024-03-02T08:38:14;9.03;;;6.47;;
7173;SDS011;3628;48.654;8.932;2024-03-02T08:40:40;7.23;;;5.57;;
7173;SDS011;3628;48.654;8.932;2024-03-02T08:43:06;7.60;;;5.70;;
7173;SDS011;3628;48.654;8.932;2024-03-02T08:45:32;7.40;;;5.83;;
7173;SDS011;3628;48.654;8.932;2024-03-02T08:47:59;7.10;;;6.10;;
7173;SDS011;3628;48.654;8.932;2024-03-02T08:50:24;7.37;;;5.67;;
7173;SDS011;3628;48.654;8.932;2024-03-02T08:52:50;7.60;;;5.50;;
7173;SDS011;3628;48.654;8.932;2024-03-02T08:55:15;6.40;;;5.50;;
7173;SDS011;3628;48.654;8.932;2024-03-02T08:57:41;7.03;;;5.20;;
7173;SDS011;3628;48.654;8.932;2024-03-02T09:00:07;7.67;;;5.40;;
7173;SDS011;3628;48.654;8.932;2024-03-02T09:02:33;6.27;;;4.60;;
7173;SDS011;3628;48.654;8.932;2024-03-02T09:04:59;6.03;;;4.80;;
7173;SDS011;3628;48.654;8.932;2024-03-02T09:07:25;5.43;;;4.70;;
7173;SDS011;3628;48.654;8.932;2024-03-02T09:09:50;6.67;;;4.83;;
7173;SDS011;3628;48.654;8.932;2024-03-02T09:12:17;4.73;;;4.10;;
7173;SDS011;3628;48.654;8.932;2024-03-02T09:14:43;4.13;;;3.73;;
7173;SDS011;3628;48.654;8.932;2024-03-02T09:17:09;4.17;;;3.77;;
7173;SDS011;3628;48.654;8.932;2024-03-02T09:19:36;6.10;;;3.73;;
7173;SDS011;3628;48.654;8.932;2024-03-02T09:22:03;3.93;;;3.33;;
7173;SDS011;3628;48.654;8.932;2024-03-02T09:24:30;3.67;;;3.30;;
7173;SDS011;3628;48.654;8.932;2024-03-02T09:26:56;3.43;;;2.87;;
7173;SDS011;3628;48.654;8.932;2024-03-02T09:29:22;4.47;;;3.03;;
7173;SDS011;3628;48.654;8.932;2024-03-02T09:31:47;4.53;;;3.00;;
7173;SDS011;3628;48.654;8.932;2024-03-02T09:34:14;3.00;;;2.70;;
7173;SDS011;3628;48.654;8.932;2024-03-02T09:36:40;3.23;;;2.33;;
7173;SDS011;3628;48.654;8.932;2024-03-02T09:39:07;2.30;;;2.10;;
7173;SDS011;3628;48.654;8.932;2024-03-02T09:41:34;2.23;;;1.80;;
7173;SDS011;3628;48.654;8.932;2024-03-02T09:44:01;3.23;;;2.40;;
7173;SDS011;3628;48.654;8.932;2024-03-02T09:46:27;2.27;;;2.07;;
7173;SDS011;3628;48.654;8.932;2024-03-02T09:48:53;2.50;;;2.03;;
7173;SDS011;3628;48.654;8.932;2024-03-02T09:51:19;2.07;;;1.87;;
7173;SDS011;3628;48.654;8.932;2024-03-02T09:53:45;1.53;;;1.43;;
7173;SDS011;3628;48.654;8.932;2024-03-02T09:56:12;1.60;;;1.50;;
7173;SDS011;3628;48.654;8.932;2024-03-02T09:58:38;3.20;;;1.80;;
7173;SDS011;3628;48.654;8.932;2024-03-02T10:01:07;1.53;;;1.43;;
7173;SDS011;3628;48.654;8.932;2024-03-02T10:03:35;1.83;;;1.50;;
7173;SDS011;3628;48.654;8.932;2024-03-02T10:06:20;2.60;;;1.53;;
7173;SDS011;3628;48.654;8.932;2024-03-02T10:08:46;1.70;;;1.60;;
7173;SDS011;3628;48.654;8.932;2024-03-02T10:14:12;2.23;;;2.03;;
7173;SDS011;3628;48.654;8.932;2024-03-02T10:16:42;1.70;;;1.60;;
7173;SDS011;3628;48.654;8.932;2024-03-02T10:19:22;1.70;;;1.40;;
7173;SDS011;3628;48.654;8.932;2024-03-02T10:21:49;2.30;;;1.93;;
7173;SDS011;3628;48.654;8.932;2024-03-02T10:24:16;3.13;;;2.27;;
7173;SDS011;3628;48.654;8.932;2024-03-02T10:26:42;3.57;;;2.40;;
7173;SDS011;3628;48.654;8.932;2024-03-02T10:29:09;2.00;;;1.80;;
7173;SDS011;3628;48.654;8.932;2024-03-02T10:31:36;2.17;;;2.00;;
7173;SDS011;3628;48.654;8.932;2024-03-02T10:34:03;2.17;;;1.97;;
7173;SDS011;3628;48.654;8.932;2024-03-02T10:36:29;5.00;;;1.90;;
7173;SDS011;3628;48.654;8.932;2024-03-02T10:38:58;2.03;;;1.83;;
7173;SDS011;3628;48.654;8.932;2024-03-02T10:41:24;2.15;;;1.65;;
7173;SDS011;3628;48.654;8.932;2024-03-02T10:43:54;1.00;;;0.93;;
7173;SDS011;3628;48.654;8.932;2024-03-02T10:46:29;1.70;;;1.00;;
7173;SDS011;3628;48.654;8.932;2024-03-02T10:48:59;1.30;;;0.65;;
7173;SDS011;3628;48.654;8.932;2024-03-02T10:51:29;0.90;;;0.70;;
7173;SDS011;3628;48.654;8.932;2024-03-02T10:53:59;0.70;;;0.70;;
7173;SDS011;3628;48.654;8.932;2024-03-02T10:56:38;0.70;;;0.70;;
7173;SDS011;3628;48.654;8.932;2024-03-02T11:01:34;0.80;;;0.80;;
7173;SDS011;3628;48.654;8.932;2024-03-02T11:04:02;0.65;;;0.60;;
7173;SDS011;3628;48.654;8.932;2024-03-02T11:06:29;0.75;;;0.45;;
7173;SDS011;3628;48.654;8.932;2024-03-02T11:08:58;0.50;;;0.50;;
7173;SDS011;3628;48.654;8.932;2024-03-02T11:11:32;0.50;;;0.50;;
7173;SDS011;3628;48.654;8.932;2024-03-02T11:14:01;0.45;;;0.40;;
7173;SDS011;3628;48.654;8.932;2024-03-02T11:16:36;0.40;;;0.40;;
7173;SDS011;3628;48.654;8.932;2024-03-02T11:19:13;0.57;;;0.57;;
7173;SDS011;3628;48.654;8.932;2024-03-02T11:21:40;0.30;;;0.30;;
7173;SDS011;3628;48.654;8.932;2024-03-02T11:26:50;0.40;;;0.40;;
7173;SDS011;3628;48.654;8.932;2024-03-02T11:32:00;0.60;;;0.57;;
7173;SDS011;3628;48.654;8.932;2024-03-02T11:34:30;0.40;;;0.40;;
7173;SDS011;3628;48.654;8.932;2024-03-02T11:36:57;0.38;;;0.38;;
7173;SDS011;3628;48.654;8.932;2024-03-02T11:39:24;0.57;;;0.40;;
7173;SDS011;3628;48.654;8.932;2024-03-02T11:41:53;0.77;;;0.50;;
7173;SDS011;3628;48.654;8.932;2024-03-02T11:44:22;0.40;;;0.30;;
7173;SDS011;3628;48.654;8.932;2024-03-02T11:46:58;0.40;;;0.40;;
7173;SDS011;3628;48.654;8.932;2024-03-02T11:52:07;1.92;;;1.30;;
7173;SDS011;3628;48.654;8.932;2024-03-02T11:54:34;1.42;;;0.90;;
7173;SDS011;3628;48.654;8.932;2024-03-02T11:57:02;0.65;;;0.65;;
7173;SDS011;3628;48.654;8.932;2024-03-02T11:59:31;1.05;;;0.80;;
7173;SDS011;3628;48.654;8.932;2024-03-02T12:01:57;0.50;;;0.40;;
7173;SDS011;3628;48.654;8.932;2024-03-02T12:04:24;0.73;;;0.60;;
7173;SDS011;3628;48.654;8.932;2024-03-02T12:07:01;0.38;;;0.38;;
7173;SDS011;3628;48.654;8.932;2024-03-02T12:09:27;0.70;;;0.40;;
7173;SDS011;3628;48.654;8.932;2024-03-02T12:12:01;0.45;;;0.45;;
7173;SDS011;3628;48.654;8.932;2024-03-02T12:14:34;0.30;;;0.30;;
7173;SDS011;3628;48.654;8.932;2024-03-02T12:17:03;1.75;;;0.30;;
7173;SDS011;3628;48.654;8.932;2024-03-02T12:19:30;0.60;;;0.40;;
7173;SDS011;3628;48.654;8.932;2024-03-02T12:21:57;1.23;;;0.35;;
7173;SDS011;3628;48.654;8.932;2024-03-02T12:24:23;0.30;;;0.30;;
7173;SDS011;3628;48.654;8.932;2024-03-02T12:26:52;0.30;;;0.30;;
7173;SDS011;3628;48.654;8.932;2024-03-02T12:29:19;0.10;;;0.10;;
7173;SDS011;3628;48.654;8.932;2024-03-02T12:31:47;5.80;;;2.10;;
7173;SDS011;3628;48.654;8.932;2024-03-02T12:34:14;0.25;;;0.25;;
7173;SDS011;3628;48.654;8.932;2024-03-02T12:36:41;0.15;;;0.15;;
7173;SDS011;3628;48.654;8.932;2024-03-02T12:39:07;0.30;;;0.30;;
7173;SDS011;3628;48.654;8.932;2024-03-02T12:41:36;0.10;;;0.10;;
7173;SDS011;3628;48.654;8.932;2024-03-02T12:44:05;2.53;;;0.32;;
7173;SDS011;3628;48.654;8.932;2024-03-02T12:46:31;0.45;;;0.38;;
7173;SDS011;3628;48.654;8.932;2024-03-02T12:49:05;0.30;;;0.30;;
7173;SDS011;3628;48.654;8.932;2024-03-02T12:51:34;1.13;;;0.30;;
7173;SDS011;3628;48.654;8.932;2024-03-02T12:54:01;0.32;;;0.30;;
7173;SDS011;3628;48.654;8.932;2024-03-02T12:56:27;0.57;;;0.50;;
7173;SDS011;3628;48.654;8.932;2024-03-02T12:58:56;0.35;;;0.30;;
7173;SDS011;3628;48.654;8.932;2024-03-02T13:01:21;0.47;;;0.45;;
7173;SDS011;3628;48.654;8.932;2024-03-02T13:03:50;0.80;;;0.40;;
7173;SDS011;3628;48.654;8.932;2024-03-02T13:06:17;0.30;;;0.30;;
7173;SDS011;3628;48.654;8.932;2024-03-02T13:08:44;0.47;;;0.47;;
7173;SDS011;3628;48.654;8.932;2024-03-02T13:11:10;0.52;;;0.52;;
7173;SDS011;3628;48.654;8.932;2024-03-02T13:13:36;0.60;;;0.60;;
7173;SDS011;3628;48.654;8.932;2024-03-02T13:16:04;0.95;;;0.70;;
7173;SDS011;3628;48.654;8.932;2024-03-02T13:18:33;0.85;;;0.68;;
7173;SDS011;3628;48.654;8.932;2024-03-02T13:20:59;0.75;;;0.75;;
7173;SDS011;3628;48.654;8.932;2024-03-02T13:23:24;1.42;;;1.13;;
7173;SDS011;3628;48.654;8.932;2024-03-02T13:25:50;1.27;;;0.98;;
7173;SDS011;3628;48.654;8.932;2024-03-02T13:28:15;0.77;;;0.77;;
7173;SDS011;3628;48.654;8.932;2024-03-02T13:30:41;3.85;;;1.33;;
7173;SDS011;3628;48.654;8.932;2024-03-02T13:33:07;1.57;;;1.10;;
7173;SDS011;3628;48.654;8.932;2024-03-02T13:35:32;1.03;;;0.80;;
7173;SDS011;3628;48.654;8.932;2024-03-02T13:37:58;3.23;;;1.00;;
7173;SDS011;3628;48.654;8.932;2024-03-02T13:40:23;1.40;;;1.03;;
7173;SDS011;3628;48.654;8.932;2024-03-02T13:42:49;1.10;;;0.90;;
7173;SDS011;3628;48.654;8.932;2024-03-02T13:45:16;1.20;;;1.10;;
7173;SDS011;3628;48.654;8.932;2024-03-02T13:47:43;0.80;;;0.80;;
7173;SDS011;3628;48.654;8.932;2024-03-02T13:50:09;0.60;;;0.60;;
7173;SDS011;3628;48.654;8.932;2024-03-02T13:52:34;0.70;;;0.70;;
7173;SDS011;3628;48.654;8.932;2024-03-02T13:55:00;1.17;;;0.90;;
7173;SDS011;3628;48.654;8.932;2024-03-02T13:57:26;1.07;;;0.97;;
7173;SDS011;3628;48.654;8.932;2024-03-02T13:59:51;0.77;;;0.70;;
7173;SDS011;3628;48.654;8.932;2024-03-02T14:02:17;0.80;;;0.80;;
7173;SDS011;3628;48.654;8.932;2024-03-02T14:04:43;1.10;;;0.90;;
7173;SDS011;3628;48.654;8.932;2024-03-02T14:07:09;2.17;;;0.70;;
7173;SDS011;3628;48.654;8.932;2024-03-02T14:09:37;1.77;;;0.63;;
7173;SDS011;3628;48.654;8.932;2024-03-02T14:12:02;1.13;;;0.80;;
7173;SDS011;3628;48.654;8.932;2024-03-02T14:14:29;0.68;;;0.68;;
7173;SDS011;3628;48.654;8.932;2024-03-02T14:16:54;0.60;;;0.60;;
7173;SDS011;3628;48.654;8.932;2024-03-02T14:19:29;1.02;;;0.85;;
7173;SDS011;3628;48.654;8.932;2024-03-02T14:21:55;0.50;;;0.50;;
7173;SDS011;3628;48.654;8.932;2024-03-02T14:24:21;0.88;;;0.73;;
7173;SDS011;3628;48.654;8.932;2024-03-02T14:26:50;0.63;;;0.60;;
7173;SDS011;3628;48.654;8.932;2024-03-02T14:29:19;1.88;;;0.73;;
7173;SDS011;3628;48.654;8.932;2024-03-02T14:31:44;1.08;;;0.70;;
7173;SDS011;3628;48.654;8.932;2024-03-02T14:34:13;0.90;;;0.52;;
7173;SDS011;3628;48.654;8.932;2024-03-02T14:36:39;2.42;;;1.48;;
7173;SDS011;3628;48.654;8.932;2024-03-02T14:39:06;1.83;;;1.27;;
7173;SDS011;3628;48.654;8.932;2024-03-02T14:41:35;1.15;;;0.77;;
7173;SDS011;3628;48.654;8.932;2024-03-02T14:44:03;1.92;;;0.60;;
7173;SDS011;3628;48.654;8.932;2024-03-02T14:46:29;0.50;;;0.50;;
7173;SDS011;3628;48.654;8.932;2024-03-02T14:48:55;0.73;;;0.57;;
7173;SDS011;3628;48.654;8.932;2024-03-02T14:51:21;2.17;;;0.50;;
7173;SDS011;3628;48.654;8.932;2024-03-02T14:53:46;1.77;;;0.65;;
7173;SDS011;3628;48.654;8.932;2024-03-02T14:56:12;0.57;;;0.57;;
7173;SDS011;3628;48.654;8.932;2024-03-02T14:58:40;2.85;;;0.70;;
7173;SDS011;3628;48.654;8.932;2024-03-02T15:01:06;0.52;;;0.52;;
7173;SDS011;3628;48.654;8.932;2024-03-02T15:03:32;0.57;;;0.57;;
7173;SDS011;3628;48.654;8.932;2024-03-02T15:05:58;0.50;;;0.50;;
7173;SDS011;3628;48.654;8.932;2024-03-02T15:08:24;0.95;;;0.70;;
7173;SDS011;3628;48.654;8.932;2024-03-02T15:10:49;0.50;;;0.50;;
7173;SDS011;3628;48.654;8.932;2024-03-02T15:13:15;0.40;;;0.40;;
7173;SDS011;3628;48.654;8.932;2024-03-02T15:15:41;0.60;;;0.50;;
7173;SDS011;3628;48.654;8.932;2024-03-02T15:18:07;0.60;;;0.60;;
7173;SDS011;3628;48.654;8.932;2024-03-02T15:20:33;0.52;;;0.52;;
7173;SDS011;3628;48.654;8.932;2024-03-02T15:22:59;0.75;;;0.52;;
7173;SDS011;3628;48.654;8.932;2024-03-02T15:25:24;0.60;;;0.40;;
7173;SDS011;3628;48.654;8.932;2024-03-02T15:27:50;0.50;;;0.50;;